SXS34J LTAI-LBSF
Flight info
| Callsign | SXS34J |
|---|---|
| Flight time | 1h 31m |
| Altitude | 36000 |
| Route | EKNUD1F EKNUD UQ26 BKZ UL615 VADEN Y520 GOL GOL6D |
| Aircraft | A320/M-SDE3FGHIRWY/LB1 |
Departure
| Time | 2026-05-06 07:08 |
|---|---|
| Airport | Antalya International Airport (LTAI) |
Arrival
| Time | 2026-05-06 08:39 |
|---|---|
| Airport | Sofia Airport (LBSF) |
| Time | Latitude | Longitude | Altitude | Speed | Heading |
|---|---|---|---|---|---|
| 2026-05-06 06:19 | 36.89330 | 30.80046 | 181 ft | 0 kts | 7° |
| 2026-05-06 06:41 | 36.89323 | 30.80045 | 181 ft | 2 kts | 8° |
| 2026-05-06 06:41 | 36.89306 | 30.80042 | 181 ft | 2 kts | 9° |
| 2026-05-06 06:41 | 36.89290 | 30.80039 | 181 ft | 2 kts | 11° |
| 2026-05-06 06:41 | 36.89274 | 30.80034 | 181 ft | 2 kts | 19° |
| 2026-05-06 06:42 | 36.89259 | 30.80026 | 181 ft | 2 kts | 60° |
| 2026-05-06 06:42 | 36.89255 | 30.80010 | 181 ft | 1 kts | 95° |
| 2026-05-06 06:42 | 36.89255 | 30.80007 | 181 ft | 0 kts | 96° |
| 2026-05-06 06:50 | 36.89255 | 30.80014 | 181 ft | 2 kts | 91° |
| 2026-05-06 06:50 | 36.89263 | 30.80025 | 181 ft | 1 kts | 28° |
| 2026-05-06 06:50 | 36.89281 | 30.80031 | 181 ft | 4 kts | 14° |
| 2026-05-06 06:51 | 36.89312 | 30.80037 | 181 ft | 5 kts | 7° |
| 2026-05-06 06:51 | 36.89329 | 30.80039 | 181 ft | 0 kts | 7° |
| 2026-05-06 06:54 | 36.89324 | 30.80039 | 181 ft | 2 kts | 7° |
| 2026-05-06 06:54 | 36.89308 | 30.80036 | 181 ft | 2 kts | 7° |
| 2026-05-06 06:55 | 36.89292 | 30.80033 | 181 ft | 2 kts | 8° |
| 2026-05-06 06:55 | 36.89275 | 30.80030 | 181 ft | 2 kts | 13° |
| 2026-05-06 06:55 | 36.89259 | 30.80024 | 181 ft | 2 kts | 52° |
| 2026-05-06 06:55 | 36.89255 | 30.80012 | 181 ft | 1 kts | 94° |
| 2026-05-06 06:56 | 36.89255 | 30.80010 | 181 ft | 0 kts | 94° |
| 2026-05-06 06:59 | 36.89255 | 30.80013 | 181 ft | 2 kts | 94° |
| 2026-05-06 06:59 | 36.89253 | 30.80044 | 181 ft | 5 kts | 95° |
| 2026-05-06 06:59 | 36.89250 | 30.80083 | 180 ft | 3 kts | 95° |
| 2026-05-06 06:59 | 36.89247 | 30.80123 | 180 ft | 6 kts | 96° |
| 2026-05-06 07:00 | 36.89243 | 30.80173 | 180 ft | 4 kts | 96° |
| 2026-05-06 07:00 | 36.89237 | 30.80229 | 180 ft | 7 kts | 97° |
| 2026-05-06 07:00 | 36.89230 | 30.80304 | 180 ft | 11 kts | 97° |
| 2026-05-06 07:00 | 36.89220 | 30.80404 | 180 ft | 3 kts | 97° |
| 2026-05-06 07:01 | 36.89218 | 30.80422 | 180 ft | 3 kts | 97° |
| 2026-05-06 07:01 | 36.89215 | 30.80458 | 180 ft | 5 kts | 96° |
| 2026-05-06 07:01 | 36.89211 | 30.80511 | 179 ft | 7 kts | 95° |
| 2026-05-06 07:01 | 36.89208 | 30.80550 | 179 ft | 2 kts | 96° |
| 2026-05-06 07:02 | 36.89205 | 30.80579 | 179 ft | 4 kts | 96° |
| 2026-05-06 07:02 | 36.89194 | 30.80615 | 179 ft | 5 kts | 136° |
| 2026-05-06 07:02 | 36.89155 | 30.80633 | 179 ft | 6 kts | 181° |
| 2026-05-06 07:02 | 36.89111 | 30.80624 | 179 ft | 5 kts | 189° |
| 2026-05-06 07:03 | 36.89070 | 30.80619 | 179 ft | 7 kts | 185° |
| 2026-05-06 07:03 | 36.89026 | 30.80612 | 178 ft | 5 kts | 187° |
| 2026-05-06 07:03 | 36.88986 | 30.80606 | 178 ft | 7 kts | 187° |
| 2026-05-06 07:03 | 36.88932 | 30.80598 | 178 ft | 9 kts | 186° |
| 2026-05-06 07:04 | 36.88866 | 30.80589 | 178 ft | 11 kts | 186° |
| 2026-05-06 07:04 | 36.88818 | 30.80582 | 178 ft | 7 kts | 186° |
| 2026-05-06 07:04 | 36.88762 | 30.80575 | 177 ft | 9 kts | 186° |
| 2026-05-06 07:04 | 36.88697 | 30.80565 | 177 ft | 10 kts | 186° |
| 2026-05-06 07:05 | 36.88620 | 30.80556 | 176 ft | 10 kts | 186° |
| 2026-05-06 07:05 | 36.88548 | 30.80545 | 176 ft | 11 kts | 187° |
| 2026-05-06 07:05 | 36.88463 | 30.80533 | 175 ft | 11 kts | 186° |
| 2026-05-06 07:05 | 36.88393 | 30.80524 | 175 ft | 11 kts | 186° |
| 2026-05-06 07:06 | 36.88311 | 30.80512 | 174 ft | 13 kts | 186° |
| 2026-05-06 07:06 | 36.88214 | 30.80499 | 174 ft | 15 kts | 186° |
| 2026-05-06 07:06 | 36.88119 | 30.80533 | 173 ft | 15 kts | 120° |
| 2026-05-06 07:06 | 36.88108 | 30.80671 | 171 ft | 17 kts | 82° |
| 2026-05-06 07:07 | 36.88201 | 30.80733 | 173 ft | 17 kts | 4° |
| 2026-05-06 07:07 | 36.88449 | 30.80768 | 176 ft | 67 kts | 6° |
| 2026-05-06 07:07 | 36.89104 | 30.80859 | 178 ft | 121 kts | 6° |
| 2026-05-06 07:07 | 36.90094 | 30.80996 | 205 ft | 161 kts | 6° |
| 2026-05-06 07:08 | 36.91129 | 30.81166 | 1007 ft | 136 kts | 10° |
| 2026-05-06 07:08 | 36.92059 | 30.81533 | 1323 ft | 156 kts | 22° |
| 2026-05-06 07:08 | 36.93128 | 30.82124 | 1654 ft | 174 kts | 22° |
| 2026-05-06 07:08 | 36.94230 | 30.82749 | 2363 ft | 173 kts | 22° |
| 2026-05-06 07:09 | 36.95397 | 30.83396 | 2625 ft | 196 kts | 22° |
| 2026-05-06 07:09 | 36.96707 | 30.84128 | 2975 ft | 212 kts | 22° |
| 2026-05-06 07:09 | 36.98086 | 30.84818 | 3687 ft | 214 kts | 19° |
| 2026-05-06 07:09 | 36.99503 | 30.85451 | 4363 ft | 220 kts | 18° |
| 2026-05-06 07:10 | 37.01020 | 30.86113 | 4751 ft | 243 kts | 18° |
| 2026-05-06 07:10 | 37.02657 | 30.86840 | 5239 ft | 261 kts | 19° |
| 2026-05-06 07:10 | 37.04384 | 30.87633 | 6023 ft | 267 kts | 19° |
| 2026-05-06 07:10 | 37.06149 | 30.88438 | 6830 ft | 272 kts | 14° |
| 2026-05-06 07:11 | 37.08025 | 30.88748 | 7667 ft | 273 kts | 357° |
| 2026-05-06 07:11 | 37.09907 | 30.88400 | 8490 ft | 276 kts | 348° |
| 2026-05-06 07:11 | 37.11791 | 30.87921 | 9345 ft | 277 kts | 348° |
| 2026-05-06 07:11 | 37.13703 | 30.87435 | 9890 ft | 283 kts | 348° |
| 2026-05-06 07:12 | 37.15633 | 30.86946 | 9991 ft | 290 kts | 348° |
| 2026-05-06 07:12 | 37.17707 | 30.86423 | 10006 ft | 315 kts | 348° |
| 2026-05-06 07:12 | 37.19881 | 30.85877 | 10004 ft | 321 kts | 348° |
| 2026-05-06 07:12 | 37.22046 | 30.85337 | 10012 ft | 321 kts | 348° |
| 2026-05-06 07:13 | 37.24260 | 30.84784 | 10518 ft | 329 kts | 348° |
| 2026-05-06 07:13 | 37.26566 | 30.84206 | 10810 ft | 344 kts | 348° |
| 2026-05-06 07:13 | 37.28926 | 30.83612 | 11412 ft | 348 kts | 347° |
| 2026-05-06 07:13 | 37.31308 | 30.83011 | 12088 ft | 350 kts | 348° |
| 2026-05-06 07:14 | 37.33715 | 30.82406 | 12735 ft | 354 kts | 348° |
| 2026-05-06 07:14 | 37.36139 | 30.81795 | 13414 ft | 357 kts | 348° |
| 2026-05-06 07:14 | 37.38590 | 30.81175 | 14017 ft | 361 kts | 348° |
| 2026-05-06 07:14 | 37.41061 | 30.80547 | 14584 ft | 364 kts | 348° |
| 2026-05-06 07:15 | 37.43593 | 30.80226 | 15145 ft | 368 kts | 359° |
| 2026-05-06 07:15 | 37.46160 | 30.80304 | 15712 ft | 370 kts | 0° |
| 2026-05-06 07:15 | 37.48743 | 30.80396 | 16278 ft | 373 kts | 0° |
| 2026-05-06 07:15 | 37.51346 | 30.80491 | 16878 ft | 376 kts | 1° |
| 2026-05-06 07:16 | 37.53971 | 30.80603 | 17475 ft | 379 kts | 1° |
| 2026-05-06 07:16 | 37.56617 | 30.80726 | 18073 ft | 382 kts | 1° |
| 2026-05-06 07:16 | 37.59279 | 30.80853 | 18625 ft | 385 kts | 1° |
| 2026-05-06 07:16 | 37.61968 | 30.80978 | 19174 ft | 388 kts | 1° |
| 2026-05-06 07:17 | 37.64667 | 30.81103 | 19740 ft | 390 kts | 1° |
| 2026-05-06 07:17 | 37.67391 | 30.81227 | 20263 ft | 393 kts | 0° |
| 2026-05-06 07:17 | 37.70131 | 30.81354 | 20766 ft | 396 kts | 0° |
| 2026-05-06 07:17 | 37.72895 | 30.81485 | 21244 ft | 398 kts | 0° |
| 2026-05-06 07:18 | 37.75671 | 30.81616 | 21707 ft | 401 kts | 0° |
| 2026-05-06 07:18 | 37.78469 | 30.81742 | 22155 ft | 403 kts | 360° |
| 2026-05-06 07:18 | 37.81281 | 30.81785 | 22599 ft | 405 kts | 358° |
| 2026-05-06 07:18 | 37.84110 | 30.81740 | 23037 ft | 407 kts | 357° |
| 2026-05-06 07:19 | 37.86954 | 30.81647 | 23463 ft | 410 kts | 356° |
| 2026-05-06 07:19 | 37.89810 | 30.81540 | 23833 ft | 412 kts | 356° |
| 2026-05-06 07:19 | 37.92683 | 30.81437 | 24180 ft | 414 kts | 356° |
| 2026-05-06 07:19 | 37.95570 | 30.81353 | 24517 ft | 416 kts | 357° |
| 2026-05-06 07:20 | 37.98434 | 30.81287 | 24847 ft | 418 kts | 357° |
| 2026-05-06 07:20 | 38.01349 | 30.81231 | 25171 ft | 420 kts | 357° |
| 2026-05-06 07:20 | 38.04278 | 30.81179 | 25495 ft | 422 kts | 357° |
| 2026-05-06 07:20 | 38.07217 | 30.81127 | 25805 ft | 424 kts | 357° |
| 2026-05-06 07:21 | 38.10171 | 30.81073 | 26124 ft | 426 kts | 357° |
| 2026-05-06 07:21 | 38.13137 | 30.80967 | 26453 ft | 427 kts | 353° |
| 2026-05-06 07:21 | 38.16124 | 30.80505 | 26782 ft | 428 kts | 351° |
| 2026-05-06 07:21 | 38.19044 | 30.80018 | 27088 ft | 430 kts | 351° |
| 2026-05-06 07:22 | 38.22015 | 30.79523 | 27466 ft | 430 kts | 351° |
| 2026-05-06 07:22 | 38.24974 | 30.79034 | 27918 ft | 429 kts | 351° |
| 2026-05-06 07:22 | 38.27929 | 30.78547 | 28375 ft | 427 kts | 351° |
| 2026-05-06 07:22 | 38.30873 | 30.78062 | 28840 ft | 426 kts | 351° |
| 2026-05-06 07:23 | 38.33806 | 30.77579 | 29330 ft | 425 kts | 351° |
| 2026-05-06 07:23 | 38.36734 | 30.77095 | 29794 ft | 424 kts | 351° |
| 2026-05-06 07:23 | 38.39653 | 30.76612 | 30259 ft | 422 kts | 351° |
| 2026-05-06 07:23 | 38.42560 | 30.76129 | 30661 ft | 421 kts | 351° |
| 2026-05-06 07:24 | 38.45463 | 30.75647 | 31038 ft | 420 kts | 351° |
| 2026-05-06 07:24 | 38.48361 | 30.75165 | 31431 ft | 420 kts | 351° |
| 2026-05-06 07:24 | 38.51257 | 30.74685 | 31819 ft | 419 kts | 351° |
| 2026-05-06 07:24 | 38.54148 | 30.74207 | 32212 ft | 419 kts | 351° |
| 2026-05-06 07:25 | 38.57035 | 30.73729 | 32604 ft | 418 kts | 351° |
| 2026-05-06 07:25 | 38.59919 | 30.73251 | 32994 ft | 418 kts | 351° |
| 2026-05-06 07:25 | 38.62798 | 30.72774 | 33391 ft | 417 kts | 351° |
| 2026-05-06 07:25 | 38.65673 | 30.72295 | 33793 ft | 416 kts | 351° |
| 2026-05-06 07:26 | 38.68543 | 30.71814 | 34177 ft | 416 kts | 350° |
| 2026-05-06 07:26 | 38.71410 | 30.71335 | 34488 ft | 415 kts | 350° |
| 2026-05-06 07:26 | 38.74274 | 30.70857 | 34790 ft | 415 kts | 350° |
| 2026-05-06 07:26 | 38.77135 | 30.70378 | 35078 ft | 415 kts | 350° |
| 2026-05-06 07:27 | 38.79029 | 30.70060 | 35267 ft | 414 kts | 350° |
| 2026-05-06 07:27 | 38.81888 | 30.69578 | 35541 ft | 414 kts | 350° |
| 2026-05-06 07:27 | 38.84709 | 30.68875 | 35812 ft | 412 kts | 342° |
| 2026-05-06 07:27 | 38.87386 | 30.67605 | 36039 ft | 410 kts | 333° |
| 2026-05-06 07:28 | 38.90778 | 30.65409 | 36120 ft | 415 kts | 332° |
| 2026-05-06 07:28 | 38.97759 | 30.60853 | 36134 ft | 423 kts | 332° |
| 2026-05-06 07:29 | 39.03013 | 30.57435 | 36119 ft | 423 kts | 332° |
| 2026-05-06 07:29 | 39.08268 | 30.54003 | 36119 ft | 423 kts | 332° |
| 2026-05-06 07:30 | 39.13517 | 30.50565 | 36123 ft | 423 kts | 332° |
| 2026-05-06 07:30 | 39.18771 | 30.47128 | 36127 ft | 424 kts | 332° |
| 2026-05-06 07:31 | 39.24027 | 30.43679 | 36137 ft | 424 kts | 332° |
| 2026-05-06 07:31 | 39.29284 | 30.40216 | 36136 ft | 424 kts | 332° |
| 2026-05-06 07:32 | 39.34542 | 30.36751 | 36123 ft | 424 kts | 332° |
| 2026-05-06 07:32 | 39.39800 | 30.33289 | 36123 ft | 425 kts | 332° |
| 2026-05-06 07:33 | 39.45025 | 30.29832 | 36122 ft | 425 kts | 332° |
| 2026-05-06 07:33 | 39.50288 | 30.26351 | 36128 ft | 425 kts | 333° |
| 2026-05-06 07:34 | 39.55705 | 30.23270 | 36127 ft | 426 kts | 337° |
| 2026-05-06 07:34 | 39.61226 | 30.20482 | 36128 ft | 426 kts | 338° |
| 2026-05-06 07:35 | 39.66740 | 30.17659 | 36126 ft | 426 kts | 337° |
| 2026-05-06 07:35 | 39.72219 | 30.14736 | 36130 ft | 425 kts | 336° |
| 2026-05-06 07:36 | 39.77680 | 30.11784 | 36127 ft | 425 kts | 336° |
| 2026-05-06 07:36 | 39.83151 | 30.08829 | 36116 ft | 426 kts | 336° |
| 2026-05-06 07:37 | 39.88628 | 30.05877 | 36114 ft | 427 kts | 336° |
| 2026-05-06 07:37 | 39.94113 | 30.02923 | 36120 ft | 427 kts | 337° |
| 2026-05-06 07:38 | 39.99603 | 29.99961 | 36116 ft | 427 kts | 336° |
| 2026-05-06 07:38 | 40.05057 | 29.97022 | 36118 ft | 427 kts | 337° |
| 2026-05-06 07:39 | 40.10548 | 29.94056 | 36118 ft | 427 kts | 336° |
| 2026-05-06 07:39 | 40.16036 | 29.91074 | 36131 ft | 427 kts | 337° |
| 2026-05-06 07:40 | 40.21559 | 29.88073 | 36129 ft | 427 kts | 337° |
| 2026-05-06 07:40 | 40.27006 | 29.85106 | 36128 ft | 427 kts | 337° |
| 2026-05-06 07:41 | 40.32483 | 29.82119 | 36116 ft | 427 kts | 337° |
| 2026-05-06 07:41 | 40.37967 | 29.79120 | 36112 ft | 427 kts | 336° |
| 2026-05-06 07:42 | 40.43454 | 29.76116 | 36118 ft | 427 kts | 337° |
| 2026-05-06 07:42 | 40.48945 | 29.73110 | 36119 ft | 428 kts | 337° |
| 2026-05-06 07:43 | 40.54435 | 29.70091 | 36123 ft | 428 kts | 336° |
| 2026-05-06 07:43 | 40.59927 | 29.67057 | 36124 ft | 428 kts | 336° |
| 2026-05-06 07:44 | 40.65387 | 29.63926 | 36124 ft | 428 kts | 331° |
| 2026-05-06 07:44 | 40.70213 | 29.59366 | 36122 ft | 428 kts | 321° |
| 2026-05-06 07:45 | 40.74863 | 29.54471 | 36122 ft | 428 kts | 322° |
| 2026-05-06 07:45 | 40.79514 | 29.49566 | 36112 ft | 428 kts | 321° |
| 2026-05-06 07:46 | 40.84163 | 29.44646 | 36116 ft | 428 kts | 321° |
| 2026-05-06 07:46 | 40.88819 | 29.39722 | 36117 ft | 429 kts | 321° |
| 2026-05-06 07:47 | 40.93466 | 29.34782 | 36119 ft | 429 kts | 321° |
| 2026-05-06 07:47 | 40.98113 | 29.29838 | 36120 ft | 429 kts | 321° |
| 2026-05-06 07:48 | 41.02738 | 29.24924 | 36122 ft | 429 kts | 321° |
| 2026-05-06 07:48 | 41.07387 | 29.19970 | 36119 ft | 429 kts | 321° |
| 2026-05-06 07:49 | 41.11964 | 29.14900 | 36120 ft | 429 kts | 315° |
| 2026-05-06 07:49 | 41.15574 | 29.08606 | 36119 ft | 430 kts | 304° |
| 2026-05-06 07:50 | 41.18885 | 29.01983 | 36118 ft | 431 kts | 304° |
| 2026-05-06 07:50 | 41.22190 | 28.95346 | 36116 ft | 431 kts | 305° |
| 2026-05-06 07:51 | 41.25501 | 28.88710 | 36121 ft | 431 kts | 305° |
| 2026-05-06 07:51 | 41.28810 | 28.82068 | 36124 ft | 431 kts | 305° |
| 2026-05-06 07:52 | 41.32112 | 28.75423 | 36127 ft | 431 kts | 304° |
| 2026-05-06 07:52 | 41.35404 | 28.68772 | 36130 ft | 430 kts | 305° |
| 2026-05-06 07:53 | 41.38691 | 28.62131 | 36131 ft | 429 kts | 305° |
| 2026-05-06 07:53 | 41.41965 | 28.55490 | 36137 ft | 429 kts | 305° |
| 2026-05-06 07:54 | 41.45237 | 28.48850 | 36129 ft | 428 kts | 305° |
| 2026-05-06 07:54 | 41.48497 | 28.42208 | 36113 ft | 428 kts | 305° |
| 2026-05-06 07:55 | 41.51752 | 28.35568 | 36120 ft | 427 kts | 305° |
| 2026-05-06 07:55 | 41.55006 | 28.28928 | 36125 ft | 427 kts | 305° |
| 2026-05-06 07:56 | 41.58254 | 28.22277 | 36102 ft | 427 kts | 305° |
| 2026-05-06 07:56 | 41.61495 | 28.15619 | 36111 ft | 428 kts | 305° |
| 2026-05-06 07:57 | 41.64739 | 28.08959 | 36109 ft | 428 kts | 305° |
| 2026-05-06 07:57 | 41.67981 | 28.02287 | 36109 ft | 428 kts | 305° |
| 2026-05-06 07:58 | 41.71218 | 27.95607 | 36105 ft | 428 kts | 304° |
| 2026-05-06 07:58 | 41.74447 | 27.88915 | 36105 ft | 428 kts | 304° |
| 2026-05-06 07:59 | 41.77671 | 27.82216 | 36100 ft | 428 kts | 304° |
| 2026-05-06 07:59 | 41.80892 | 27.75509 | 36102 ft | 428 kts | 304° |
| 2026-05-06 08:00 | 41.84091 | 27.68845 | 36091 ft | 428 kts | 304° |
| 2026-05-06 08:00 | 41.87305 | 27.62142 | 36092 ft | 427 kts | 304° |
| 2026-05-06 08:01 | 41.90514 | 27.55430 | 36093 ft | 427 kts | 304° |
| 2026-05-06 08:01 | 41.93717 | 27.48710 | 36092 ft | 427 kts | 304° |
| 2026-05-06 08:02 | 41.96915 | 27.41987 | 36083 ft | 427 kts | 304° |
| 2026-05-06 08:02 | 42.00108 | 27.35267 | 36099 ft | 427 kts | 304° |
| 2026-05-06 08:03 | 42.03292 | 27.28533 | 36097 ft | 427 kts | 304° |
| 2026-05-06 08:03 | 42.06458 | 27.21775 | 36095 ft | 428 kts | 301° |
| 2026-05-06 08:04 | 42.09114 | 27.14595 | 36085 ft | 428 kts | 298° |
| 2026-05-06 08:04 | 42.11715 | 27.07376 | 36088 ft | 428 kts | 298° |
| 2026-05-06 08:05 | 42.14320 | 27.00159 | 36087 ft | 428 kts | 298° |
| 2026-05-06 08:05 | 42.16918 | 26.92940 | 36090 ft | 428 kts | 298° |
| 2026-05-06 08:06 | 42.19506 | 26.85721 | 36088 ft | 427 kts | 298° |
| 2026-05-06 08:06 | 42.22080 | 26.78494 | 36094 ft | 427 kts | 298° |
| 2026-05-06 08:07 | 42.24645 | 26.71268 | 36097 ft | 427 kts | 298° |
| 2026-05-06 08:07 | 42.27212 | 26.64045 | 36085 ft | 427 kts | 298° |
| 2026-05-06 08:08 | 42.29759 | 26.56875 | 36097 ft | 426 kts | 298° |
| 2026-05-06 08:08 | 42.32314 | 26.49664 | 36102 ft | 425 kts | 298° |
| 2026-05-06 08:09 | 42.34860 | 26.42449 | 36102 ft | 425 kts | 298° |
| 2026-05-06 08:09 | 42.37395 | 26.35233 | 36090 ft | 425 kts | 298° |
| 2026-05-06 08:10 | 42.39928 | 26.28011 | 36096 ft | 425 kts | 298° |
| 2026-05-06 08:10 | 42.42455 | 26.20788 | 36091 ft | 425 kts | 298° |
| 2026-05-06 08:11 | 42.44983 | 26.13562 | 36092 ft | 425 kts | 298° |
| 2026-05-06 08:11 | 42.47502 | 26.06335 | 36072 ft | 424 kts | 298° |
| 2026-05-06 08:12 | 42.50014 | 25.99101 | 36084 ft | 424 kts | 298° |
| 2026-05-06 08:12 | 42.52524 | 25.91869 | 36080 ft | 424 kts | 297° |
| 2026-05-06 08:13 | 42.55025 | 25.84634 | 36083 ft | 424 kts | 297° |
| 2026-05-06 08:13 | 42.57524 | 25.77398 | 36068 ft | 424 kts | 297° |
| 2026-05-06 08:14 | 42.60013 | 25.70162 | 36083 ft | 423 kts | 297° |
| 2026-05-06 08:14 | 42.62485 | 25.62929 | 36056 ft | 421 kts | 297° |
| 2026-05-06 08:15 | 42.64953 | 25.55704 | 36049 ft | 422 kts | 297° |
| 2026-05-06 08:15 | 42.67424 | 25.48471 | 36054 ft | 422 kts | 297° |
| 2026-05-06 08:16 | 42.69473 | 25.42464 | 36047 ft | 421 kts | 297° |
| 2026-05-06 08:16 | 42.71921 | 25.35251 | 36043 ft | 420 kts | 297° |
| 2026-05-06 08:17 | 42.74360 | 25.28029 | 36048 ft | 420 kts | 297° |
| 2026-05-06 08:17 | 42.76797 | 25.20803 | 36049 ft | 420 kts | 297° |
| 2026-05-06 08:18 | 42.79239 | 25.13567 | 36052 ft | 421 kts | 297° |
| 2026-05-06 08:18 | 42.81677 | 25.06320 | 36055 ft | 421 kts | 297° |
| 2026-05-06 08:19 | 42.84107 | 24.99070 | 36058 ft | 421 kts | 297° |
| 2026-05-06 08:19 | 42.86527 | 24.91809 | 36023 ft | 421 kts | 297° |
| 2026-05-06 08:20 | 42.87736 | 24.88180 | 35749 ft | 420 kts | 297° |
| 2026-05-06 08:20 | 42.88946 | 24.84555 | 35140 ft | 420 kts | 297° |
| 2026-05-06 08:20 | 42.90157 | 24.80923 | 34404 ft | 421 kts | 297° |
| 2026-05-06 08:20 | 42.91370 | 24.77275 | 33542 ft | 424 kts | 297° |
| 2026-05-06 08:21 | 42.92583 | 24.73616 | 32746 ft | 424 kts | 297° |
| 2026-05-06 08:21 | 42.93798 | 24.69942 | 31877 ft | 425 kts | 297° |
| 2026-05-06 08:21 | 42.95016 | 24.66256 | 31041 ft | 427 kts | 296° |
| 2026-05-06 08:21 | 42.96237 | 24.62555 | 30203 ft | 429 kts | 296° |
| 2026-05-06 08:22 | 42.97465 | 24.58824 | 29151 ft | 432 kts | 296° |
| 2026-05-06 08:22 | 42.98697 | 24.55078 | 28146 ft | 434 kts | 296° |
| 2026-05-06 08:22 | 42.99936 | 24.51312 | 27172 ft | 435 kts | 296° |
| 2026-05-06 08:22 | 43.01168 | 24.47555 | 26519 ft | 430 kts | 296° |
| 2026-05-06 08:23 | 43.02384 | 24.43850 | 25832 ft | 426 kts | 296° |
| 2026-05-06 08:23 | 43.03589 | 24.40172 | 25159 ft | 422 kts | 295° |
| 2026-05-06 08:23 | 43.04784 | 24.36522 | 24484 ft | 419 kts | 295° |
| 2026-05-06 08:23 | 43.05970 | 24.32894 | 23819 ft | 417 kts | 295° |
| 2026-05-06 08:24 | 43.06706 | 24.30470 | 23319 ft | 417 kts | 290° |
| 2026-05-06 08:24 | 43.06905 | 24.29612 | 23153 ft | 417 kts | 286° |
| 2026-05-06 08:24 | 43.07449 | 24.25762 | 22522 ft | 413 kts | 275° |
| 2026-05-06 08:24 | 43.07283 | 24.21831 | 21780 ft | 415 kts | 261° |
| 2026-05-06 08:25 | 43.06457 | 24.18050 | 21077 ft | 417 kts | 249° |
| 2026-05-06 08:25 | 43.05055 | 24.14581 | 20366 ft | 419 kts | 236° |
| 2026-05-06 08:25 | 43.03256 | 24.11444 | 19677 ft | 419 kts | 233° |
| 2026-05-06 08:25 | 43.01435 | 24.08345 | 19004 ft | 418 kts | 233° |
| 2026-05-06 08:26 | 42.99614 | 24.05252 | 18363 ft | 417 kts | 232° |
| 2026-05-06 08:26 | 42.97800 | 24.02176 | 17658 ft | 415 kts | 232° |
| 2026-05-06 08:26 | 42.95994 | 23.99120 | 17046 ft | 412 kts | 232° |
| 2026-05-06 08:26 | 42.94204 | 23.96092 | 16437 ft | 409 kts | 232° |
| 2026-05-06 08:27 | 42.92421 | 23.93075 | 15809 ft | 407 kts | 232° |
| 2026-05-06 08:27 | 42.90649 | 23.90082 | 15333 ft | 401 kts | 232° |
| 2026-05-06 08:27 | 42.88930 | 23.87186 | 15249 ft | 384 kts | 232° |
| 2026-05-06 08:27 | 42.87284 | 23.84417 | 15136 ft | 369 kts | 232° |
| 2026-05-06 08:28 | 42.85662 | 23.81847 | 14977 ft | 357 kts | 224° |
| 2026-05-06 08:28 | 42.83692 | 23.79902 | 14816 ft | 346 kts | 208° |
| 2026-05-06 08:28 | 42.81475 | 23.78784 | 14654 ft | 336 kts | 192° |
| 2026-05-06 08:28 | 42.79179 | 23.78501 | 14483 ft | 328 kts | 175° |
| 2026-05-06 08:29 | 42.77062 | 23.79410 | 14324 ft | 318 kts | 146° |
| 2026-05-06 08:29 | 42.75551 | 23.81534 | 13929 ft | 316 kts | 117° |
| 2026-05-06 08:29 | 42.74845 | 23.84363 | 13401 ft | 318 kts | 99° |
| 2026-05-06 08:29 | 42.74603 | 23.87359 | 12916 ft | 319 kts | 91° |
| 2026-05-06 08:30 | 42.74555 | 23.90377 | 12419 ft | 316 kts | 89° |
| 2026-05-06 08:30 | 42.74538 | 23.93314 | 11941 ft | 306 kts | 91° |
| 2026-05-06 08:30 | 42.74049 | 23.96057 | 11481 ft | 297 kts | 121° |
| 2026-05-06 08:30 | 42.72636 | 23.97997 | 11010 ft | 288 kts | 153° |
| 2026-05-06 08:31 | 42.70743 | 23.98649 | 10543 ft | 280 kts | 179° |
| 2026-05-06 08:31 | 42.68815 | 23.98424 | 10030 ft | 277 kts | 200° |
| 2026-05-06 08:31 | 42.67281 | 23.97004 | 9594 ft | 265 kts | 235° |
| 2026-05-06 08:31 | 42.66536 | 23.94801 | 9224 ft | 253 kts | 261° |
| 2026-05-06 08:32 | 42.66507 | 23.92475 | 8885 ft | 243 kts | 275° |
| 2026-05-06 08:32 | 42.66649 | 23.90218 | 8515 ft | 237 kts | 274° |
| 2026-05-06 08:32 | 42.66787 | 23.88016 | 8157 ft | 233 kts | 275° |
| 2026-05-06 08:32 | 42.66925 | 23.85819 | 7848 ft | 234 kts | 275° |
| 2026-05-06 08:33 | 42.67063 | 23.83614 | 7531 ft | 235 kts | 274° |
| 2026-05-06 08:33 | 42.67201 | 23.81425 | 7202 ft | 229 kts | 274° |
| 2026-05-06 08:33 | 42.67336 | 23.79302 | 6894 ft | 221 kts | 274° |
| 2026-05-06 08:33 | 42.67466 | 23.77267 | 6646 ft | 212 kts | 274° |
| 2026-05-06 08:34 | 42.67589 | 23.75301 | 6306 ft | 206 kts | 274° |
| 2026-05-06 08:34 | 42.67818 | 23.71548 | 5748 ft | 196 kts | 274° |
| 2026-05-06 08:34 | 42.67931 | 23.69700 | 5479 ft | 196 kts | 274° |
| 2026-05-06 08:35 | 42.68043 | 23.67858 | 5212 ft | 195 kts | 274° |
| 2026-05-06 08:35 | 42.68155 | 23.66033 | 4943 ft | 194 kts | 274° |
| 2026-05-06 08:35 | 42.68267 | 23.64206 | 4673 ft | 194 kts | 275° |
| 2026-05-06 08:35 | 42.68380 | 23.62376 | 4414 ft | 195 kts | 275° |
| 2026-05-06 08:36 | 42.68494 | 23.60537 | 4154 ft | 195 kts | 275° |
| 2026-05-06 08:36 | 42.68607 | 23.58700 | 3892 ft | 195 kts | 275° |
| 2026-05-06 08:36 | 42.68721 | 23.56865 | 3636 ft | 195 kts | 275° |
| 2026-05-06 08:36 | 42.68834 | 23.55033 | 3374 ft | 194 kts | 276° |
| 2026-05-06 08:37 | 42.68945 | 23.53220 | 3106 ft | 190 kts | 276° |
| 2026-05-06 08:37 | 42.69049 | 23.51517 | 2883 ft | 169 kts | 276° |
| 2026-05-06 08:37 | 42.69141 | 23.50004 | 2665 ft | 154 kts | 276° |
| 2026-05-06 08:37 | 42.69230 | 23.48577 | 2480 ft | 149 kts | 276° |
| 2026-05-06 08:38 | 42.69317 | 23.47185 | 2305 ft | 147 kts | 275° |
| 2026-05-06 08:38 | 42.69407 | 23.45805 | 2098 ft | 146 kts | 275° |
| 2026-05-06 08:38 | 42.69487 | 23.44430 | 1913 ft | 146 kts | 274° |
| 2026-05-06 08:38 | 42.69568 | 23.43076 | 1754 ft | 136 kts | 275° |
| 2026-05-06 08:39 | 42.69628 | 23.42057 | 1746 ft | 84 kts | 275° |
| 2026-05-06 08:39 | 42.69564 | 23.41518 | 1741 ft | 38 kts | 243° |
| 2026-05-06 08:39 | 42.69487 | 23.41251 | 1746 ft | 18 kts | 271° |
| 2026-05-06 08:39 | 42.69490 | 23.41197 | 1743 ft | 0 kts | 247° |
| 2026-05-06 08:41 | 42.69486 | 23.41196 | 1743 ft | 1 kts | 207° |
| 2026-05-06 08:41 | 42.69418 | 23.41205 | 1748 ft | 16 kts | 188° |
| 2026-05-06 08:41 | 42.69296 | 23.41171 | 1748 ft | 19 kts | 191° |
| 2026-05-06 08:41 | 42.69179 | 23.41136 | 1748 ft | 13 kts | 193° |
| 2026-05-06 08:42 | 42.69114 | 23.41044 | 1743 ft | 16 kts | 250° |
| 2026-05-06 08:42 | 42.69078 | 23.40896 | 1747 ft | 15 kts | 252° |
| 2026-05-06 08:42 | 42.69044 | 23.40789 | 1745 ft | 8 kts | 204° |
| 2026-05-06 08:42 | 42.68981 | 23.40759 | 1747 ft | 11 kts | 190° |
| 2026-05-06 08:43 | 42.68915 | 23.40803 | 1746 ft | 13 kts | 113° |
| 2026-05-06 08:43 | 42.68923 | 23.40901 | 1742 ft | 7 kts | 356° |
| 2026-05-06 08:43 | 42.68924 | 23.40853 | 1742 ft | 8 kts | 258° |
| 2026-05-06 08:43 | 42.68924 | 23.40750 | 1744 ft | 13 kts | 292° |
| 2026-05-06 08:44 | 42.68977 | 23.40680 | 1747 ft | 9 kts | 33° |
| 2026-05-06 08:44 | 42.69033 | 23.40706 | 1747 ft | 0 kts | 14° |
| 2026-05-06 08:44 | 42.69036 | 23.40707 | 1747 ft | 0 kts | 13° |